• Join FlightAware (Why Join?)
  • Login
  • US Flag 
06:03AM EDT


 

Airport Tracker/Info


-or-


 

Live Flight TrackerFlight Track Log ✈ N749SS ✈ 28-Feb-2014 ✈ KDAL - KAPF

Flight Track Log - Related Links

Times and Time Zones

All times are in EST time to prevent confusion due to time zone crossing. See the N749SS flight status page for this flight to view local times or setup timezone preferences in your user account.

Time Position Orientation Groundspeed Altitude Reporting Facility
EST Latitude Longitude Course Direction KTS MPH feet Rate Location/Type
01:54PM 32.8333 -96.8333 121° Southeast 174 200 1,500  Level Dallas / Fort Worth TRACON
01:55PM 32.8167 -96.8000 121° Southeast 243 280 3,800 2,460 Climbing Dallas / Fort Worth TRACON
01:56PM 32.7742 -96.6556 109° East 303 349 7,300 2,880 Climbing Fort Worth Center
01:57PM 32.7661 -96.5364 95° East 338 389 11,600 3,300 Climbing Fort Worth Center
01:58PM 32.7625 -96.4094 92° East 387 445 14,200 2,700 Climbing Fort Worth Center
01:59PM 32.7494 -96.2544 96° East 440 506 17,300 2,700 Climbing Fort Worth Center
02:01PM 32.7236 -96.1050 102° East 461 531 19,800 2,340 Climbing Fort Worth Center
02:02PM 32.6978 -95.9306 100° East 496 571 22,200 2,220 Climbing Fort Worth Center
02:03PM 32.6733 -95.7800 101° East 505 581 24,500 2,220 Climbing Fort Worth Center
02:04PM 32.6586 -95.6119 96° East 513 590 26,900 2,100 Climbing Fort Worth Center
02:05PM 32.6717 -95.4414 85° East 519 597 28,900 1,920 Climbing Fort Worth Center
02:06PM 32.6850 -95.2536 85° East 532 612 30,900 1,740 Climbing Fort Worth Center
02:07PM 32.6967 -95.0725 86° East 546 628 32,600 720 Climbing Fort Worth Center
02:09PM 32.6325 -94.7125 102° East 601 692 33,000 120 Climbing Houston Center
02:10PM 32.5378 -94.5464 124° Southeast 608 700 33,000  Level Houston Center
02:11PM 32.4442 -94.3803 124° Southeast 606 697 33,000  Level Houston Center
02:12PM 32.3511 -94.2122 123° Southeast 606 697 33,000  Level Houston Center
02:13PM 32.2383 -94.0136 124° Southeast 606 697 33,100 540 Climbing Houston Center
02:14PM 32.1433 -93.8472 124° Southeast 606 697 34,200 900 Climbing Houston Center
02:15PM 32.0444 -93.6731 124° Southeast 607 699 35,000 360 Climbing Houston Center
02:16PM 31.9417 -93.4919 124° Southeast 608 700 35,000  Level Houston Center
02:17PM 31.8553 -93.3433 124° Southeast 608 700 35,000  Level Houston Center
02:18PM 31.7583 -93.1753 124° Southeast 608 700 35,000  Level Houston Center
02:19PM 31.6633 -93.0097 124° Southeast 609 701 35,000  Level Houston Center
02:20PM 31.5667 -92.8444 124° Southeast 609 701 35,000  Level Houston Center
02:21PM 31.4522 -92.6481 124° Southeast 609 701 35,000  Level Houston Center
02:22PM 31.3558 -92.4839 124° Southeast 609 701 35,000  Level Houston Center
02:23PM 31.2594 -92.3214 125° Southeast 609 701 35,000  Level Houston Center
02:24PM 31.1631 -92.1594 125° Southeast 609 701 35,000  Level Houston Center
02:25PM 31.0628 -91.9908 125° Southeast 605 696 35,000  Level Houston Center
02:26PM 30.9683 -91.8319 125° Southeast 601 692 35,000  Level Houston Center
02:27PM 30.8733 -91.6736 125° Southeast 601 692 35,000  Level Houston Center
02:28PM 30.7592 -91.4844 125° Southeast 596 686 35,000  Level Houston Center
02:29PM 30.6683 -91.3342 125° Southeast 594 684 35,000  Level Houston Center
02:30PM 30.5742 -91.1786 125° Southeast 594 684 35,000  Level Houston Center
02:31PM 30.4803 -91.0228 125° Southeast 593 682 35,000  Level Houston Center
02:32PM 30.3864 -90.8694 125° Southeast 591 680 35,000  Level Houston Center
02:33PM 30.2739 -90.6844 125° Southeast 591 680 35,000  Level Houston Center
02:34PM 30.1817 -90.5292 124° Southeast 590 679 35,000  Level Houston Center
02:36PM 30.0964 -90.3708 122° Southeast 589 678 35,000  Level Houston Center
02:37PM 30.0089 -90.2142 123° Southeast 588 677 35,000  Level Houston Center
02:38PM 29.9044 -90.0267 123° Southeast 588 677 35,000  Level Houston Center
02:39PM 29.8181 -89.8706 123° Southeast 586 674 35,000  Level Houston Center
02:40PM 29.7303 -89.7144 123° Southeast 586 674 35,000  Level Houston Center
02:41PM 29.6417 -89.5575 123° Southeast 587 676 35,000  Level Houston Center
02:42PM 29.5533 -89.4006 123° Southeast 589 678 35,000  Level Houston Center
02:43PM 29.4472 -89.2139 123° Southeast 587 676 35,000  Level Houston Center
02:44PM 29.3586 -89.0558 123° Southeast 586 674 35,000  Level Houston Center
02:45PM 29.2672 -88.8961 123° Southeast 586 674 35,000  Level Houston Center
02:46PM 29.1789 -88.7467 124° Southeast 586 674 35,000  Level Houston Center
02:47PM 29.0911 -88.5914 123° Southeast 586 674 35,000  Level Houston Center
02:48PM 28.9847 -88.4072 123° Southeast 581 669 35,000  Level Houston Center
02:49PM 28.8953 -88.2533 124° Southeast 580 667 35,000  Level Houston Center
02:50PM 28.8061 -88.1000 124° Southeast 581 669 35,000  Level Houston Center
02:51PM 28.7181 -87.9478 123° Southeast 580 667 35,000  Level Houston Center
02:52PM 28.6281 -87.7964 124° Southeast 572 658 35,000  Level Houston Center
02:53PM 28.5394 -87.6461 124° Southeast 572 658 35,000  Level Houston Center
02:54PM 28.4342 -87.4686 124° Southeast 569 655 35,000  Level Houston Center
02:55PM 28.3464 -87.3217 124° Southeast 566 651 35,000  Level Houston Center
02:56PM 28.2617 -87.1731 123° Southeast 566 651 35,000  Level Houston Center
02:57PM 28.2106 -87.0331 112° Southeast 569 655 35,000  Level Jacksonville Center
02:58PM 28.1511 -86.8681 112° Southeast 569 655 35,000  Level Jacksonville Center
02:59PM 28.0894 -86.7011 113° Southeast 573 659 35,000  Level Jacksonville Center
03:00PM 28.0317 -86.5392 112° Southeast 562 647 35,000  Level Jacksonville Center
03:01PM 27.9672 -86.3747 114° Southeast 565 650 35,000  Level Jacksonville Center
03:02PM 27.9069 -86.2058 112° Southeast 566 651 35,000  Level Jacksonville Center
03:03PM 27.8444 -86.0419 113° Southeast 566 651 35,000  Level Jacksonville Center
03:04PM 27.7817 -85.8783 113° Southeast 560 644 35,000  Level Jacksonville Center
03:05PM 27.7203 -85.7217 114° Southeast 561 646 35,000  Level Jacksonville Center
03:06PM 27.6531 -85.5311 112° Southeast 566 651 35,000  Level Miami Center
03:07PM 27.5886 -85.3556 112° Southeast 572 658 35,000  Level Miami Center
03:08PM 27.5081 -85.2000 120° Southeast 572 658 35,000  Level Miami Center
03:09PM 27.4339 -85.0406 118° Southeast 572 658 35,000 -300 Level Miami Center
03:10PM 27.3611 -84.8858 118° Southeast 566 651 34,400 -840 Descending Miami Center
03:11PM 27.2822 -84.7311 120° Southeast 566 651 33,400 -1,080 Descending Miami Center
03:12PM 27.2053 -84.5742 119° Southeast 566 651 32,300 -1,080 Descending Miami Center
03:13PM 27.1319 -84.4203 118° Southeast 567 652 31,300 -1,020 Descending Miami Center
03:14PM 27.0506 -84.2589 119° Southeast 572 658 30,300 -1,020 Descending Miami Center
03:15PM 26.9772 -84.1028 118° Southeast 579 666 29,300 -1,020 Descending Miami Center
03:16PM 26.8978 -83.9397 119° Southeast 584 672 28,300 -1,080 Descending Miami Center
03:17PM 26.8197 -83.7817 119° Southeast 584 672 27,200 -1,140 Descending Miami Center
03:18PM 26.7417 -83.6261 119° Southeast 577 664 26,100 -1,620 Descending Miami Center
03:19PM 26.6669 -83.4800 120° Southeast 559 643 24,000 -2,100 Descending Miami Center
03:20PM 26.5981 -83.3417 119° Southeast 534 615 21,900 -2,100 Descending Miami Center
03:21PM 26.5311 -83.2081 119° Southeast 506 582 19,800 -2,100 Descending Miami Center
03:22PM 26.4658 -83.0769 119° Southeast 494 568 17,700 -2,100 Descending Miami Center
03:23PM 26.4022 -82.9486 119° Southeast 481 554 15,700 -2,040 Descending Miami Center
03:24PM 26.3386 -82.8247 120° Southeast 467 537 13,700 -1,920 Descending Miami Center
03:25PM 26.2844 -82.7156 119° Southeast 453 521 11,900 -1,680 Descending Miami Center
03:26PM 26.2322 -82.6111 119° Southeast 410 472 10,400 -1,440 Descending Miami Center
03:27PM 26.1897 -82.5281 120° Southeast 355 409 9,100 -1,320 Descending Miami Center
03:28PM 26.1533 -82.4431 115° Southeast 327 376 7,800 -1,500 Descending Miami Center
03:29PM 26.1547 -82.3531 89° East 286 329 6,100 -1,800 Descending Miami Center
03:30PM 26.1556 -82.2697 89° East 291 335 4,200 -1,560 Descending Miami Center
03:31PM 26.1547 -82.1819 91° East 291 335 3,000 -600 Descending Miami Center
03:32PM 26.1558 -82.0917 89° East 291 335 3,000  Level Miami Center
03:33PM 26.1547 -82.0036 91° East 291 335 3,000 -600 Level Miami Center
03:34PM 26.1367 -81.9219 104° East 281 323 1,900 -780 Descending Miami Center
03:35PM 26.1097 -81.8608 116° Southeast 216 249 1,500 -420 Descending Miami Center
03:37PM 26.1500 -81.7667 79° East  Level FlightAware Approximate
03:44PM 26.1524 -81.7756 79° East  Level Estimated
03:45PM 26.1524 -81.7756 79° East  Level Estimated
03:46PM 26.1524 -81.7756 79° East  Level Estimated